sensor_id;sensor_type;location;lat;lon;timestamp;P1;durP1;ratioP1;P2;durP2;ratioP2
66966;SDS011;53900;51.468;-2.586;2023-03-03T00:00:57;3.90;;;2.10;;
66966;SDS011;53900;51.468;-2.586;2023-03-03T00:03:22;6.10;;;1.98;;
66966;SDS011;53900;51.468;-2.586;2023-03-03T00:05:48;7.00;;;1.90;;
66966;SDS011;53900;51.468;-2.586;2023-03-03T00:08:14;7.20;;;2.13;;
66966;SDS011;53900;51.468;-2.586;2023-03-03T00:10:39;4.03;;;2.08;;
66966;SDS011;53900;51.468;-2.586;2023-03-03T00:13:05;4.72;;;1.80;;
66966;SDS011;53900;51.468;-2.586;2023-03-03T00:15:34;4.18;;;1.90;;
66966;SDS011;53900;51.468;-2.586;2023-03-03T00:18:00;4.03;;;1.73;;
66966;SDS011;53900;51.468;-2.586;2023-03-03T00:20:27;4.55;;;1.65;;
66966;SDS011;53900;51.468;-2.586;2023-03-03T00:22:53;3.42;;;1.30;;
66966;SDS011;53900;51.468;-2.586;2023-03-03T00:25:28;5.95;;;1.55;;
66966;SDS011;53900;51.468;-2.586;2023-03-03T00:27:54;2.22;;;1.65;;
66966;SDS011;53900;51.468;-2.586;2023-03-03T00:30:22;1.23;;;1.00;;
66966;SDS011;53900;51.468;-2.586;2023-03-03T00:32:49;1.07;;;1.00;;
66966;SDS011;53900;51.468;-2.586;2023-03-03T00:35:35;1.98;;;0.98;;
66966;SDS011;53900;51.468;-2.586;2023-03-03T00:38:13;1.70;;;0.95;;
66966;SDS011;53900;51.468;-2.586;2023-03-03T00:40:39;3.53;;;1.50;;
66966;SDS011;53900;51.468;-2.586;2023-03-03T00:45:43;2.13;;;1.00;;
66966;SDS011;53900;51.468;-2.586;2023-03-03T00:50:38;4.20;;;1.02;;
66966;SDS011;53900;51.468;-2.586;2023-03-03T00:55:29;3.70;;;1.08;;
66966;SDS011;53900;51.468;-2.586;2023-03-03T00:57:54;2.92;;;1.08;;
66966;SDS011;53900;51.468;-2.586;2023-03-03T01:00:20;3.35;;;1.33;;
66966;SDS011;53900;51.468;-2.586;2023-03-03T01:02:45;3.63;;;1.13;;
66966;SDS011;53900;51.468;-2.586;2023-03-03T01:05:12;5.30;;;1.30;;
66966;SDS011;53900;51.468;-2.586;2023-03-03T01:07:38;3.38;;;1.20;;
66966;SDS011;53900;51.468;-2.586;2023-03-03T01:10:03;3.53;;;1.38;;
66966;SDS011;53900;51.468;-2.586;2023-03-03T01:12:28;3.17;;;1.20;;
66966;SDS011;53900;51.468;-2.586;2023-03-03T01:14:53;2.03;;;1.42;;
66966;SDS011;53900;51.468;-2.586;2023-03-03T01:17:19;1.77;;;1.27;;
66966;SDS011;53900;51.468;-2.586;2023-03-03T01:19:44;4.20;;;1.38;;
66966;SDS011;53900;51.468;-2.586;2023-03-03T01:22:09;3.17;;;1.45;;
66966;SDS011;53900;51.468;-2.586;2023-03-03T01:24:35;2.55;;;1.38;;
66966;SDS011;53900;51.468;-2.586;2023-03-03T01:27:00;2.33;;;1.20;;
66966;SDS011;53900;51.468;-2.586;2023-03-03T01:29:25;1.95;;;1.02;;
66966;SDS011;53900;51.468;-2.586;2023-03-03T01:31:50;3.58;;;1.25;;
66966;SDS011;53900;51.468;-2.586;2023-03-03T01:34:15;2.17;;;1.17;;
66966;SDS011;53900;51.468;-2.586;2023-03-03T01:36:41;4.68;;;1.20;;
66966;SDS011;53900;51.468;-2.586;2023-03-03T01:39:06;4.20;;;1.50;;
66966;SDS011;53900;51.468;-2.586;2023-03-03T01:41:31;4.65;;;1.63;;
66966;SDS011;53900;51.468;-2.586;2023-03-03T01:43:59;3.28;;;1.38;;
66966;SDS011;53900;51.468;-2.586;2023-03-03T01:46:33;7.03;;;1.60;;
66966;SDS011;53900;51.468;-2.586;2023-03-03T01:49:05;4.00;;;1.48;;
66966;SDS011;53900;51.468;-2.586;2023-03-03T01:51:32;1.75;;;1.20;;
66966;SDS011;53900;51.468;-2.586;2023-03-03T01:54:03;3.15;;;1.63;;
66966;SDS011;53900;51.468;-2.586;2023-03-03T01:56:30;1.85;;;1.20;;
66966;SDS011;53900;51.468;-2.586;2023-03-03T02:01:21;4.30;;;1.30;;
66966;SDS011;53900;51.468;-2.586;2023-03-03T02:03:46;3.13;;;1.17;;
66966;SDS011;53900;51.468;-2.586;2023-03-03T02:06:13;3.60;;;1.60;;
66966;SDS011;53900;51.468;-2.586;2023-03-03T02:08:44;6.95;;;1.80;;
66966;SDS011;53900;51.468;-2.586;2023-03-03T02:11:12;1.40;;;1.10;;
66966;SDS011;53900;51.468;-2.586;2023-03-03T02:13:38;1.58;;;1.30;;
66966;SDS011;53900;51.468;-2.586;2023-03-03T02:16:03;2.85;;;1.20;;
66966;SDS011;53900;51.468;-2.586;2023-03-03T02:18:28;3.00;;;1.10;;
66966;SDS011;53900;51.468;-2.586;2023-03-03T02:21:00;2.80;;;1.17;;
66966;SDS011;53900;51.468;-2.586;2023-03-03T02:23:34;3.20;;;1.38;;
66966;SDS011;53900;51.468;-2.586;2023-03-03T02:26:12;3.08;;;1.50;;
66966;SDS011;53900;51.468;-2.586;2023-03-03T02:28:37;3.85;;;1.33;;
66966;SDS011;53900;51.468;-2.586;2023-03-03T02:31:05;1.50;;;0.98;;
66966;SDS011;53900;51.468;-2.586;2023-03-03T02:33:30;6.38;;;1.50;;
66966;SDS011;53900;51.468;-2.586;2023-03-03T02:35:56;2.17;;;1.40;;
66966;SDS011;53900;51.468;-2.586;2023-03-03T02:43:28;2.58;;;1.08;;
66966;SDS011;53900;51.468;-2.586;2023-03-03T02:45:56;1.55;;;1.02;;
66966;SDS011;53900;51.468;-2.586;2023-03-03T02:48:21;3.53;;;1.10;;
66966;SDS011;53900;51.468;-2.586;2023-03-03T02:50:47;2.33;;;1.25;;
66966;SDS011;53900;51.468;-2.586;2023-03-03T02:53:12;3.90;;;1.20;;
66966;SDS011;53900;51.468;-2.586;2023-03-03T02:55:37;3.38;;;1.20;;
66966;SDS011;53900;51.468;-2.586;2023-03-03T02:58:02;3.45;;;1.10;;
66966;SDS011;53900;51.468;-2.586;2023-03-03T03:00:27;2.85;;;1.15;;
66966;SDS011;53900;51.468;-2.586;2023-03-03T03:02:53;2.83;;;1.10;;
66966;SDS011;53900;51.468;-2.586;2023-03-03T03:05:18;1.63;;;0.93;;
66966;SDS011;53900;51.468;-2.586;2023-03-03T03:07:43;3.30;;;1.02;;
66966;SDS011;53900;51.468;-2.586;2023-03-03T03:10:08;3.35;;;1.20;;
66966;SDS011;53900;51.468;-2.586;2023-03-03T03:12:34;1.73;;;0.93;;
66966;SDS011;53900;51.468;-2.586;2023-03-03T03:14:59;4.45;;;1.15;;
66966;SDS011;53900;51.468;-2.586;2023-03-03T03:17:24;5.78;;;1.13;;
66966;SDS011;53900;51.468;-2.586;2023-03-03T03:19:50;3.30;;;1.08;;
66966;SDS011;53900;51.468;-2.586;2023-03-03T03:22:15;2.45;;;1.10;;
66966;SDS011;53900;51.468;-2.586;2023-03-03T03:24:40;2.88;;;1.40;;
66966;SDS011;53900;51.468;-2.586;2023-03-03T03:27:05;4.05;;;1.45;;
66966;SDS011;53900;51.468;-2.586;2023-03-03T03:29:30;2.53;;;1.48;;
66966;SDS011;53900;51.468;-2.586;2023-03-03T03:31:56;3.40;;;1.35;;
66966;SDS011;53900;51.468;-2.586;2023-03-03T03:34:21;2.40;;;1.30;;
66966;SDS011;53900;51.468;-2.586;2023-03-03T03:36:46;3.22;;;1.40;;
66966;SDS011;53900;51.468;-2.586;2023-03-03T03:39:11;4.70;;;1.63;;
66966;SDS011;53900;51.468;-2.586;2023-03-03T03:41:37;1.88;;;1.75;;
66966;SDS011;53900;51.468;-2.586;2023-03-03T03:44:02;2.83;;;1.80;;
66966;SDS011;53900;51.468;-2.586;2023-03-03T03:46:27;3.72;;;1.60;;
66966;SDS011;53900;51.468;-2.586;2023-03-03T03:48:52;3.00;;;1.40;;
66966;SDS011;53900;51.468;-2.586;2023-03-03T03:51:17;4.72;;;1.67;;
66966;SDS011;53900;51.468;-2.586;2023-03-03T03:53:43;2.47;;;1.77;;
66966;SDS011;53900;51.468;-2.586;2023-03-03T03:56:08;4.32;;;1.50;;
66966;SDS011;53900;51.468;-2.586;2023-03-03T03:58:33;3.28;;;1.75;;
66966;SDS011;53900;51.468;-2.586;2023-03-03T04:01:02;3.88;;;1.55;;
66966;SDS011;53900;51.468;-2.586;2023-03-03T04:03:28;3.72;;;1.60;;
66966;SDS011;53900;51.468;-2.586;2023-03-03T04:05:53;2.92;;;1.48;;
66966;SDS011;53900;51.468;-2.586;2023-03-03T04:08:19;2.75;;;1.70;;
66966;SDS011;53900;51.468;-2.586;2023-03-03T04:10:44;2.97;;;1.60;;
66966;SDS011;53900;51.468;-2.586;2023-03-03T04:13:09;1.63;;;1.33;;
66966;SDS011;53900;51.468;-2.586;2023-03-03T04:15:35;1.55;;;1.33;;
66966;SDS011;53900;51.468;-2.586;2023-03-03T04:18:00;4.43;;;1.13;;
66966;SDS011;53900;51.468;-2.586;2023-03-03T04:20:25;3.95;;;1.50;;
66966;SDS011;53900;51.468;-2.586;2023-03-03T04:22:50;3.90;;;1.60;;
66966;SDS011;53900;51.468;-2.586;2023-03-03T04:25:16;5.38;;;1.33;;
66966;SDS011;53900;51.468;-2.586;2023-03-03T04:27:42;4.95;;;1.35;;
66966;SDS011;53900;51.468;-2.586;2023-03-03T04:30:07;3.53;;;1.60;;
66966;SDS011;53900;51.468;-2.586;2023-03-03T04:32:33;2.75;;;1.23;;
66966;SDS011;53900;51.468;-2.586;2023-03-03T04:34:58;3.22;;;1.33;;
66966;SDS011;53900;51.468;-2.586;2023-03-03T04:37:24;2.53;;;1.30;;
66966;SDS011;53900;51.468;-2.586;2023-03-03T04:39:49;1.00;;;0.90;;
66966;SDS011;53900;51.468;-2.586;2023-03-03T04:42:14;2.75;;;1.30;;
66966;SDS011;53900;51.468;-2.586;2023-03-03T04:44:39;1.00;;;0.90;;
66966;SDS011;53900;51.468;-2.586;2023-03-03T04:47:04;4.07;;;1.20;;
66966;SDS011;53900;51.468;-2.586;2023-03-03T04:49:30;5.25;;;1.02;;
66966;SDS011;53900;51.468;-2.586;2023-03-03T04:51:55;2.55;;;1.10;;
66966;SDS011;53900;51.468;-2.586;2023-03-03T04:54:21;2.20;;;1.00;;
66966;SDS011;53900;51.468;-2.586;2023-03-03T04:56:46;2.55;;;0.90;;
66966;SDS011;53900;51.468;-2.586;2023-03-03T04:59:11;2.67;;;1.08;;
66966;SDS011;53900;51.468;-2.586;2023-03-03T05:01:37;3.50;;;1.08;;
66966;SDS011;53900;51.468;-2.586;2023-03-03T05:04:02;2.58;;;1.33;;
66966;SDS011;53900;51.468;-2.586;2023-03-03T05:06:27;1.75;;;1.17;;
66966;SDS011;53900;51.468;-2.586;2023-03-03T05:08:52;1.83;;;1.08;;
66966;SDS011;53900;51.468;-2.586;2023-03-03T05:11:18;2.67;;;1.30;;
66966;SDS011;53900;51.468;-2.586;2023-03-03T05:13:43;3.88;;;1.17;;
66966;SDS011;53900;51.468;-2.586;2023-03-03T05:16:09;2.65;;;1.40;;
66966;SDS011;53900;51.468;-2.586;2023-03-03T05:18:35;1.60;;;1.10;;
66966;SDS011;53900;51.468;-2.586;2023-03-03T05:21:00;2.10;;;1.10;;
66966;SDS011;53900;51.468;-2.586;2023-03-03T05:23:25;2.28;;;1.30;;
66966;SDS011;53900;51.468;-2.586;2023-03-03T05:25:50;1.42;;;1.30;;
66966;SDS011;53900;51.468;-2.586;2023-03-03T05:28:16;1.58;;;1.13;;
66966;SDS011;53900;51.468;-2.586;2023-03-03T05:30:41;2.83;;;1.45;;
66966;SDS011;53900;51.468;-2.586;2023-03-03T05:33:07;7.38;;;1.58;;
66966;SDS011;53900;51.468;-2.586;2023-03-03T05:35:32;2.65;;;1.40;;
66966;SDS011;53900;51.468;-2.586;2023-03-03T05:37:57;2.25;;;1.20;;
66966;SDS011;53900;51.468;-2.586;2023-03-03T05:40:26;4.00;;;1.15;;
66966;SDS011;53900;51.468;-2.586;2023-03-03T05:42:51;3.38;;;1.30;;
66966;SDS011;53900;51.468;-2.586;2023-03-03T05:45:17;3.38;;;1.75;;
66966;SDS011;53900;51.468;-2.586;2023-03-03T05:47:48;3.03;;;1.30;;
66966;SDS011;53900;51.468;-2.586;2023-03-03T05:50:13;1.50;;;1.00;;
66966;SDS011;53900;51.468;-2.586;2023-03-03T05:52:38;1.77;;;1.17;;
66966;SDS011;53900;51.468;-2.586;2023-03-03T05:55:04;1.65;;;1.02;;
66966;SDS011;53900;51.468;-2.586;2023-03-03T05:57:29;1.88;;;1.00;;
66966;SDS011;53900;51.468;-2.586;2023-03-03T05:59:55;3.35;;;1.40;;
66966;SDS011;53900;51.468;-2.586;2023-03-03T06:02:20;1.98;;;0.98;;
66966;SDS011;53900;51.468;-2.586;2023-03-03T06:04:46;1.05;;;0.82;;
66966;SDS011;53900;51.468;-2.586;2023-03-03T06:07:11;2.53;;;0.80;;
66966;SDS011;53900;51.468;-2.586;2023-03-03T06:09:36;2.60;;;1.05;;
66966;SDS011;53900;51.468;-2.586;2023-03-03T06:12:01;2.63;;;1.10;;
66966;SDS011;53900;51.468;-2.586;2023-03-03T06:14:27;4.68;;;1.08;;
66966;SDS011;53900;51.468;-2.586;2023-03-03T06:16:52;2.60;;;1.10;;
66966;SDS011;53900;51.468;-2.586;2023-03-03T06:19:17;1.90;;;0.90;;
66966;SDS011;53900;51.468;-2.586;2023-03-03T06:21:43;0.80;;;0.80;;
66966;SDS011;53900;51.468;-2.586;2023-03-03T06:24:08;2.92;;;0.95;;
66966;SDS011;53900;51.468;-2.586;2023-03-03T06:26:33;5.95;;;1.20;;
66966;SDS011;53900;51.468;-2.586;2023-03-03T06:28:58;2.60;;;1.00;;
66966;SDS011;53900;51.468;-2.586;2023-03-03T06:31:24;2.35;;;1.08;;
66966;SDS011;53900;51.468;-2.586;2023-03-03T06:33:49;1.70;;;1.10;;
66966;SDS011;53900;51.468;-2.586;2023-03-03T06:36:15;4.55;;;1.10;;
66966;SDS011;53900;51.468;-2.586;2023-03-03T06:38:40;5.65;;;0.95;;
66966;SDS011;53900;51.468;-2.586;2023-03-03T06:41:06;1.55;;;0.88;;
66966;SDS011;53900;51.468;-2.586;2023-03-03T06:43:33;2.85;;;0.90;;
66966;SDS011;53900;51.468;-2.586;2023-03-03T06:45:58;3.17;;;1.10;;
66966;SDS011;53900;51.468;-2.586;2023-03-03T06:48:23;3.38;;;1.20;;
66966;SDS011;53900;51.468;-2.586;2023-03-03T06:50:48;2.85;;;0.73;;
66966;SDS011;53900;51.468;-2.586;2023-03-03T06:53:14;3.72;;;1.30;;
66966;SDS011;53900;51.468;-2.586;2023-03-03T06:55:40;2.50;;;0.77;;
66966;SDS011;53900;51.468;-2.586;2023-03-03T06:58:12;4.30;;;1.08;;
66966;SDS011;53900;51.468;-2.586;2023-03-03T07:00:39;4.07;;;1.20;;
66966;SDS011;53900;51.468;-2.586;2023-03-03T07:03:07;2.17;;;0.95;;
66966;SDS011;53900;51.468;-2.586;2023-03-03T07:05:36;2.97;;;1.40;;
66966;SDS011;53900;51.468;-2.586;2023-03-03T07:08:02;7.82;;;1.45;;
66966;SDS011;53900;51.468;-2.586;2023-03-03T07:10:28;2.75;;;1.45;;
66966;SDS011;53900;51.468;-2.586;2023-03-03T07:12:55;2.72;;;1.20;;
66966;SDS011;53900;51.468;-2.586;2023-03-03T07:15:23;1.40;;;1.30;;
66966;SDS011;53900;51.468;-2.586;2023-03-03T07:17:54;3.42;;;1.10;;
66966;SDS011;53900;51.468;-2.586;2023-03-03T07:20:20;1.52;;;1.08;;
66966;SDS011;53900;51.468;-2.586;2023-03-03T07:22:46;3.53;;;0.90;;
66966;SDS011;53900;51.468;-2.586;2023-03-03T07:25:18;2.63;;;1.45;;
66966;SDS011;53900;51.468;-2.586;2023-03-03T07:27:43;5.20;;;1.10;;
66966;SDS011;53900;51.468;-2.586;2023-03-03T07:32:44;4.65;;;1.27;;
66966;SDS011;53900;51.468;-2.586;2023-03-03T07:37:54;3.00;;;1.40;;
66966;SDS011;53900;51.468;-2.586;2023-03-03T07:42:47;6.47;;;1.45;;
66966;SDS011;53900;51.468;-2.586;2023-03-03T07:45:45;1.70;;;1.10;;
66966;SDS011;53900;51.468;-2.586;2023-03-03T07:50:35;2.08;;;1.10;;
66966;SDS011;53900;51.468;-2.586;2023-03-03T07:53:00;2.15;;;1.20;;
66966;SDS011;53900;51.468;-2.586;2023-03-03T07:55:30;3.25;;;1.25;;
66966;SDS011;53900;51.468;-2.586;2023-03-03T07:57:58;2.22;;;1.38;;
66966;SDS011;53900;51.468;-2.586;2023-03-03T08:08:18;1.50;;;1.10;;
66966;SDS011;53900;51.468;-2.586;2023-03-03T08:10:46;6.70;;;1.42;;
66966;SDS011;53900;51.468;-2.586;2023-03-03T08:13:16;2.88;;;1.40;;
66966;SDS011;53900;51.468;-2.586;2023-03-03T08:15:41;2.30;;;1.20;;
66966;SDS011;53900;51.468;-2.586;2023-03-03T08:18:15;4.93;;;1.20;;
66966;SDS011;53900;51.468;-2.586;2023-03-03T08:23:08;2.05;;;1.30;;
66966;SDS011;53900;51.468;-2.586;2023-03-03T08:25:33;4.75;;;1.27;;
66966;SDS011;53900;51.468;-2.586;2023-03-03T08:27:58;3.47;;;1.40;;
66966;SDS011;53900;51.468;-2.586;2023-03-03T08:30:23;6.35;;;1.50;;
66966;SDS011;53900;51.468;-2.586;2023-03-03T08:32:49;1.30;;;1.20;;
66966;SDS011;53900;51.468;-2.586;2023-03-03T08:35:14;3.55;;;1.38;;
66966;SDS011;53900;51.468;-2.586;2023-03-03T08:37:39;3.20;;;1.35;;
66966;SDS011;53900;51.468;-2.586;2023-03-03T08:40:05;2.13;;;1.30;;
66966;SDS011;53900;51.468;-2.586;2023-03-03T08:42:30;1.20;;;1.10;;
66966;SDS011;53900;51.468;-2.586;2023-03-03T08:44:55;2.17;;;1.30;;
66966;SDS011;53900;51.468;-2.586;2023-03-03T08:47:20;1.48;;;1.10;;
66966;SDS011;53900;51.468;-2.586;2023-03-03T08:49:46;3.30;;;1.60;;
66966;SDS011;53900;51.468;-2.586;2023-03-03T08:52:11;2.08;;;1.30;;
66966;SDS011;53900;51.468;-2.586;2023-03-03T08:54:36;8.02;;;1.58;;
66966;SDS011;53900;51.468;-2.586;2023-03-03T08:57:01;1.88;;;1.30;;
66966;SDS011;53900;51.468;-2.586;2023-03-03T08:59:27;4.90;;;1.35;;
66966;SDS011;53900;51.468;-2.586;2023-03-03T09:01:52;3.72;;;1.60;;
66966;SDS011;53900;51.468;-2.586;2023-03-03T09:04:17;4.50;;;1.58;;
66966;SDS011;53900;51.468;-2.586;2023-03-03T09:06:42;4.75;;;1.52;;
66966;SDS011;53900;51.468;-2.586;2023-03-03T09:09:07;3.83;;;1.58;;
66966;SDS011;53900;51.468;-2.586;2023-03-03T09:11:33;6.75;;;1.40;;
66966;SDS011;53900;51.468;-2.586;2023-03-03T09:14:01;3.80;;;1.48;;
66966;SDS011;53900;51.468;-2.586;2023-03-03T09:16:32;3.42;;;1.73;;
66966;SDS011;53900;51.468;-2.586;2023-03-03T09:18:58;2.72;;;1.67;;
66966;SDS011;53900;51.468;-2.586;2023-03-03T09:21:30;2.65;;;1.30;;
66966;SDS011;53900;51.468;-2.586;2023-03-03T09:23:59;1.92;;;1.23;;
66966;SDS011;53900;51.468;-2.586;2023-03-03T09:28:57;2.35;;;1.40;;
66966;SDS011;53900;51.468;-2.586;2023-03-03T09:33:48;4.60;;;1.60;;
66966;SDS011;53900;51.468;-2.586;2023-03-03T09:38:46;3.03;;;1.58;;
66966;SDS011;53900;51.468;-2.586;2023-03-03T09:46:41;5.45;;;1.23;;
66966;SDS011;53900;51.468;-2.586;2023-03-03T09:57:10;4.28;;;1.10;;
66966;SDS011;53900;51.468;-2.586;2023-03-03T10:17:16;4.38;;;1.02;;
66966;SDS011;53900;51.468;-2.586;2023-03-03T10:40:16;3.40;;;1.27;;
66966;SDS011;53900;51.468;-2.586;2023-03-03T10:52:45;1.60;;;0.93;;
66966;SDS011;53900;51.468;-2.586;2023-03-03T10:55:26;2.25;;;0.98;;
66966;SDS011;53900;51.468;-2.586;2023-03-03T11:06:04;1.70;;;0.80;;
66966;SDS011;53900;51.468;-2.586;2023-03-03T11:21:50;3.55;;;0.88;;
66966;SDS011;53900;51.468;-2.586;2023-03-03T11:27:20;1.23;;;1.00;;
66966;SDS011;53900;51.468;-2.586;2023-03-03T11:38:33;2.03;;;1.23;;
66966;SDS011;53900;51.468;-2.586;2023-03-03T11:40:38;1.73;;;1.10;;
66966;SDS011;53900;51.468;-2.586;2023-03-03T11:43:13;2.05;;;0.93;;
66966;SDS011;53900;51.468;-2.586;2023-03-03T11:45:43;2.97;;;1.00;;
66966;SDS011;53900;51.468;-2.586;2023-03-03T11:48:15;7.85;;;1.08;;
66966;SDS011;53900;51.468;-2.586;2023-03-03T11:50:52;0.80;;;0.80;;
66966;SDS011;53900;51.468;-2.586;2023-03-03T11:56:17;2.67;;;1.00;;
66966;SDS011;53900;51.468;-2.586;2023-03-03T11:59:03;3.25;;;0.90;;
66966;SDS011;53900;51.468;-2.586;2023-03-03T12:06:29;0.90;;;0.75;;
66966;SDS011;53900;51.468;-2.586;2023-03-03T12:09:16;1.38;;;0.80;;
66966;SDS011;53900;51.468;-2.586;2023-03-03T12:11:48;0.82;;;0.73;;
66966;SDS011;53900;51.468;-2.586;2023-03-03T12:19:13;0.70;;;0.70;;
66966;SDS011;53900;51.468;-2.586;2023-03-03T12:26:40;2.40;;;0.80;;
66966;SDS011;53900;51.468;-2.586;2023-03-03T12:29:21;3.30;;;1.40;;
66966;SDS011;53900;51.468;-2.586;2023-03-03T12:35:08;6.35;;;2.05;;
66966;SDS011;53900;51.468;-2.586;2023-03-03T12:39:44;4.07;;;1.05;;
66966;SDS011;53900;51.468;-2.586;2023-03-03T12:45:04;2.53;;;0.82;;
66966;SDS011;53900;51.468;-2.586;2023-03-03T12:47:39;1.23;;;0.98;;
66966;SDS011;53900;51.468;-2.586;2023-03-03T12:57:49;1.33;;;0.95;;
66966;SDS011;53900;51.468;-2.586;2023-03-03T13:02:56;1.17;;;1.08;;
66966;SDS011;53900;51.468;-2.586;2023-03-03T13:08:15;0.65;;;0.60;;
66966;SDS011;53900;51.468;-2.586;2023-03-03T13:13:28;2.58;;;0.98;;
66966;SDS011;53900;51.468;-2.586;2023-03-03T13:21:05;2.67;;;1.50;;
66966;SDS011;53900;51.468;-2.586;2023-03-03T13:26:21;4.38;;;1.70;;
66966;SDS011;53900;51.468;-2.586;2023-03-03T13:28:56;2.28;;;1.40;;
66966;SDS011;53900;51.468;-2.586;2023-03-03T13:31:26;1.92;;;1.38;;
66966;SDS011;53900;51.468;-2.586;2023-03-03T13:36:18;5.80;;;1.50;;
66966;SDS011;53900;51.468;-2.586;2023-03-03T13:38:45;1.77;;;1.17;;
66966;SDS011;53900;51.468;-2.586;2023-03-03T13:41:17;4.80;;;1.40;;
66966;SDS011;53900;51.468;-2.586;2023-03-03T13:43:51;4.40;;;1.58;;
66966;SDS011;53900;51.468;-2.586;2023-03-03T13:46:40;2.88;;;1.50;;
66966;SDS011;53900;51.468;-2.586;2023-03-03T14:02:23;7.55;;;2.25;;
66966;SDS011;53900;51.468;-2.586;2023-03-03T14:10:33;7.78;;;2.50;;
66966;SDS011;53900;51.468;-2.586;2023-03-03T14:13:13;4.13;;;2.70;;
66966;SDS011;53900;51.468;-2.586;2023-03-03T14:18:14;6.55;;;3.15;;
66966;SDS011;53900;51.468;-2.586;2023-03-03T14:20:46;3.50;;;3.20;;
66966;SDS011;53900;51.468;-2.586;2023-03-03T14:23:13;4.85;;;3.45;;
66966;SDS011;53900;51.468;-2.586;2023-03-03T14:26:23;10.63;;;3.43;;
66966;SDS011;53900;51.468;-2.586;2023-03-03T14:28:37;8.10;;;4.28;;
66966;SDS011;53900;51.468;-2.586;2023-03-03T14:31:09;6.65;;;4.82;;
66966;SDS011;53900;51.468;-2.586;2023-03-03T14:33:38;6.47;;;4.30;;
66966;SDS011;53900;51.468;-2.586;2023-03-03T14:36:09;6.78;;;4.10;;
66966;SDS011;53900;51.468;-2.586;2023-03-03T14:38:39;9.95;;;4.50;;
66966;SDS011;53900;51.468;-2.586;2023-03-03T14:44:20;6.05;;;4.03;;
66966;SDS011;53900;51.468;-2.586;2023-03-03T14:48:51;8.48;;;4.32;;
66966;SDS011;53900;51.468;-2.586;2023-03-03T14:53:42;7.00;;;4.38;;
66966;SDS011;53900;51.468;-2.586;2023-03-03T14:58:53;11.40;;;5.40;;
66966;SDS011;53900;51.468;-2.586;2023-03-03T15:03:48;8.73;;;5.70;;
66966;SDS011;53900;51.468;-2.586;2023-03-03T15:06:26;9.00;;;5.78;;
66966;SDS011;53900;51.468;-2.586;2023-03-03T15:08:52;12.40;;;6.15;;
66966;SDS011;53900;51.468;-2.586;2023-03-03T15:13:42;11.98;;;6.30;;
66966;SDS011;53900;51.468;-2.586;2023-03-03T15:16:09;10.40;;;6.50;;
66966;SDS011;53900;51.468;-2.586;2023-03-03T15:18:46;12.07;;;6.30;;
66966;SDS011;53900;51.468;-2.586;2023-03-03T15:21:18;10.10;;;5.53;;
66966;SDS011;53900;51.468;-2.586;2023-03-03T15:24:02;15.38;;;6.75;;
66966;SDS011;53900;51.468;-2.586;2023-03-03T15:26:45;11.38;;;6.55;;
66966;SDS011;53900;51.468;-2.586;2023-03-03T15:39:02;9.70;;;6.30;;
66966;SDS011;53900;51.468;-2.586;2023-03-03T15:41:46;11.98;;;6.55;;
66966;SDS011;53900;51.468;-2.586;2023-03-03T15:44:30;12.52;;;6.88;;
66966;SDS011;53900;51.468;-2.586;2023-03-03T15:49:45;13.60;;;7.13;;
66966;SDS011;53900;51.468;-2.586;2023-03-03T15:55:19;10.07;;;6.10;;
66966;SDS011;53900;51.468;-2.586;2023-03-03T16:02:55;10.82;;;6.43;;
66966;SDS011;53900;51.468;-2.586;2023-03-03T16:05:27;11.32;;;6.22;;
66966;SDS011;53900;51.468;-2.586;2023-03-03T16:08:09;10.55;;;6.28;;
66966;SDS011;53900;51.468;-2.586;2023-03-03T16:13:29;7.63;;;5.53;;
66966;SDS011;53900;51.468;-2.586;2023-03-03T16:16:11;8.65;;;5.95;;
66966;SDS011;53900;51.468;-2.586;2023-03-03T16:23:58;13.30;;;6.18;;
66966;SDS011;53900;51.468;-2.586;2023-03-03T16:31:39;9.40;;;6.28;;
66966;SDS011;53900;51.468;-2.586;2023-03-03T16:34:14;9.35;;;6.07;;
66966;SDS011;53900;51.468;-2.586;2023-03-03T16:46:47;8.10;;;5.63;;
66966;SDS011;53900;51.468;-2.586;2023-03-03T16:49:32;10.95;;;6.47;;
66966;SDS011;53900;51.468;-2.586;2023-03-03T16:52:09;9.88;;;6.40;;
66966;SDS011;53900;51.468;-2.586;2023-03-03T17:12:57;9.77;;;4.82;;
66966;SDS011;53900;51.468;-2.586;2023-03-03T17:17:51;8.15;;;5.65;;
66966;SDS011;53900;51.468;-2.586;2023-03-03T17:25:35;8.50;;;4.70;;
66966;SDS011;53900;51.468;-2.586;2023-03-03T17:43:22;7.88;;;5.05;;
66966;SDS011;53900;51.468;-2.586;2023-03-03T17:45:49;8.32;;;4.72;;
66966;SDS011;53900;51.468;-2.586;2023-03-03T17:55:38;9.40;;;4.93;;
66966;SDS011;53900;51.468;-2.586;2023-03-03T18:05:50;9.90;;;6.10;;
66966;SDS011;53900;51.468;-2.586;2023-03-03T18:13:31;10.27;;;5.57;;
66966;SDS011;53900;51.468;-2.586;2023-03-03T18:16:03;9.15;;;5.38;;
66966;SDS011;53900;51.468;-2.586;2023-03-03T18:21:07;6.38;;;4.75;;
66966;SDS011;53900;51.468;-2.586;2023-03-03T18:23:37;12.35;;;5.88;;
66966;SDS011;53900;51.468;-2.586;2023-03-03T18:28:49;8.38;;;4.75;;
66966;SDS011;53900;51.468;-2.586;2023-03-03T18:31:25;7.70;;;5.07;;
66966;SDS011;53900;51.468;-2.586;2023-03-03T18:34:06;9.45;;;4.85;;
66966;SDS011;53900;51.468;-2.586;2023-03-03T18:38:57;10.45;;;5.70;;
66966;SDS011;53900;51.468;-2.586;2023-03-03T18:41:25;10.45;;;6.05;;
66966;SDS011;53900;51.468;-2.586;2023-03-03T18:43:54;9.68;;;6.00;;
66966;SDS011;53900;51.468;-2.586;2023-03-03T18:54:03;11.65;;;7.45;;
66966;SDS011;53900;51.468;-2.586;2023-03-03T19:02:06;10.02;;;5.38;;
66966;SDS011;53900;51.468;-2.586;2023-03-03T19:04:35;8.18;;;5.00;;
66966;SDS011;53900;51.468;-2.586;2023-03-03T19:07:20;8.00;;;5.43;;
66966;SDS011;53900;51.468;-2.586;2023-03-03T19:17:49;10.77;;;5.53;;
66966;SDS011;53900;51.468;-2.586;2023-03-03T19:20:16;7.05;;;5.00;;
66966;SDS011;53900;51.468;-2.586;2023-03-03T19:22:48;8.38;;;5.13;;
66966;SDS011;53900;51.468;-2.586;2023-03-03T19:27:46;9.38;;;5.28;;
66966;SDS011;53900;51.468;-2.586;2023-03-03T19:30:14;8.25;;;5.07;;
66966;SDS011;53900;51.468;-2.586;2023-03-03T19:33:02;10.10;;;6.00;;
66966;SDS011;53900;51.468;-2.586;2023-03-03T19:35:32;7.43;;;4.80;;
66966;SDS011;53900;51.468;-2.586;2023-03-03T19:45:47;7.25;;;5.00;;
66966;SDS011;53900;51.468;-2.586;2023-03-03T20:03:38;10.32;;;5.50;;
66966;SDS011;53900;51.468;-2.586;2023-03-03T20:08:40;11.52;;;6.43;;
66966;SDS011;53900;51.468;-2.586;2023-03-03T20:11:09;8.85;;;5.60;;
66966;SDS011;53900;51.468;-2.586;2023-03-03T20:21:45;9.70;;;5.88;;
66966;SDS011;53900;51.468;-2.586;2023-03-03T20:26:50;10.07;;;5.60;;
66966;SDS011;53900;51.468;-2.586;2023-03-03T20:29:28;8.52;;;5.68;;
66966;SDS011;53900;51.468;-2.586;2023-03-03T20:34:37;9.57;;;5.53;;
66966;SDS011;53900;51.468;-2.586;2023-03-03T20:37:06;12.18;;;6.60;;
66966;SDS011;53900;51.468;-2.586;2023-03-03T20:42:21;12.88;;;6.55;;
66966;SDS011;53900;51.468;-2.586;2023-03-03T20:47:21;11.40;;;7.20;;
66966;SDS011;53900;51.468;-2.586;2023-03-03T20:52:29;9.73;;;6.22;;
66966;SDS011;53900;51.468;-2.586;2023-03-03T20:57:26;8.98;;;6.20;;
66966;SDS011;53900;51.468;-2.586;2023-03-03T21:05:13;10.93;;;6.10;;
66966;SDS011;53900;51.468;-2.586;2023-03-03T21:10:21;10.07;;;6.68;;
66966;SDS011;53900;51.468;-2.586;2023-03-03T21:12:57;13.15;;;6.95;;
66966;SDS011;53900;51.468;-2.586;2023-03-03T21:15:27;11.40;;;6.53;;
66966;SDS011;53900;51.468;-2.586;2023-03-03T21:17:53;12.95;;;6.95;;
66966;SDS011;53900;51.468;-2.586;2023-03-03T21:20:27;11.25;;;6.47;;
66966;SDS011;53900;51.468;-2.586;2023-03-03T21:22:55;11.85;;;6.28;;
66966;SDS011;53900;51.468;-2.586;2023-03-03T21:28:40;12.20;;;7.10;;
66966;SDS011;53900;51.468;-2.586;2023-03-03T21:31:13;11.27;;;6.30;;
66966;SDS011;53900;51.468;-2.586;2023-03-03T21:33:44;15.45;;;8.65;;
66966;SDS011;53900;51.468;-2.586;2023-03-03T21:38:35;13.18;;;6.47;;
66966;SDS011;53900;51.468;-2.586;2023-03-03T21:41:01;9.13;;;5.70;;
66966;SDS011;53900;51.468;-2.586;2023-03-03T21:43:33;10.23;;;6.65;;
66966;SDS011;53900;51.468;-2.586;2023-03-03T21:45:59;10.30;;;6.20;;